Home > Products > Valid Products > TAF

000
FTUS46 KSGX 040642 AAA
TAFSNA
TAF AMD
KSNA 040642Z 0407/0506 VRB04KT P6SM FEW014
     FM040830 VRB04KT P6SM OVC011
     FM041800 23009KT P6SM SCT014
     FM050400 VRB04KT P6SM OVC012=



000
FTUS46 KSGX 040520
TAFPSP
TAF
KPSP 040520Z 0406/0506 33012G22KT P6SM BKN200
     FM040700 VRB05KT P6SM SCT200
     FM042300 32010KT P6SM SCT250
     FM050200 32013G20KT P6SM SCT200=



000
FTUS46 KSGX 040520
TAFTRM
TAF
KTRM 040520Z 0406/0506 33012G20KT P6SM SCT200
     FM041000 33008KT P6SM SCT200
     FM041400 VRB05KT P6SM SCT250
     FM050000 14009KT P6SM SCT200=



000
FTUS46 KSGX 040520
TAFCRQ
TAF
KCRQ 040520Z 0406/0506 VRB05KT P6SM OVC009
     FM041800 26009KT P6SM SCT012
     FM050100 VRB04KT P6SM OVC010=



000
FTUS46 KSGX 040520
TAFONT
TAF
KONT 040520Z 0406/0512 26008KT P6SM SCT150
     FM041200 VRB04KT 4SM BR SCT006
     FM041600 VRB04KT 6SM HZ SKC
     FM042100 25011G18KT P6SM SKC
     FM050500 VRB05KT 6SM HZ FEW005=



000
FTUS46 KSGX 040520
TAFSAN
TAF
KSAN 040520Z 0406/0512 VRB04KT P6SM OVC011
     FM041800 29009KT P6SM SCT015
     FM050200 VRB04KT P6SM OVC012=



000
FTUS46 KSGX 040520
TAFSNA
TAF
KSNA 040520Z 0406/0506 VRB04KT P6SM FEW012
     FM040700 VRB04KT P6SM OVC011
     FM041800 23009KT P6SM SCT014
     FM050400 VRB04KT P6SM OVC012=



000
FTUS46 KSGX 040240 AAA
TAFCRQ
TAF AMD
KCRQ 040240Z 0403/0424 VRB05KT P6SM OVC009
     FM041800 26009KT P6SM SCT012=



000
FTUS46 KSGX 032321
TAFPSP
TAF
KPSP 032321Z 0400/0424 33012G22KT P6SM BKN200
     FM040700 VRB05KT P6SM SCT200
     FM042300 32011KT P6SM SKC=



000
FTUS46 KSGX 032321
TAFTRM
TAF
KTRM 032321Z 0400/0424 VRB05KT P6SM BKN200
     FM040200 33012G22KT P6SM SCT200
     FM041000 33008KT P6SM SCT200
     FM041400 VRB05KT P6SM SKC=



000
FTUS46 KSGX 032321
TAFSNA
TAF
KSNA 032321Z 0400/0424 23008KT P6SM FEW015 SCT250
     FM040200 VRB04KT P6SM SCT015
     FM040600 VRB04KT P6SM OVC012
     FM041800 23009KT P6SM SCT015=



000
FTUS46 KSGX 032321
TAFCRQ
TAF
KCRQ 032321Z 0400/0424 28009KT P6SM SCT012
     FM040300 VRB04KT P6SM OVC010
     FM041800 26009KT P6SM SCT012=



000
FTUS46 KSGX 032321
TAFONT
TAF
KONT 032321Z 0400/0506 25011G18KT P6SM SCT150 BKN250
     FM040400 25007KT P6SM SCT250
     FM041200 VRB04KT 4SM BR SCT006
     FM041600 VRB04KT 6SM HZ SKC
     FM042100 25011G18KT P6SM SKC
     FM050500 VRB05KT P6SM SKC=



000
FTUS46 KSGX 032321
TAFSAN
TAF
KSAN 032321Z 0400/0506 30012KT P6SM FEW015 SCT250
     FM040200 VRB04KT P6SM SCT013
      TEMPO 0402/0404 BKN012
     FM040400 VRB04KT P6SM OVC012
     FM041900 29009KT P6SM SCT015
     FM050300 VRB04KT P6SM OVC013=



000
FTUS46 KSGX 032050 AAA
TAFSAN
TAF AMD
KSAN 032050Z 0321/0424 29011KT P6SM FEW015
     FM040200 VRB04KT P6SM SCT013
     FM040400 VRB04KT P6SM OVC013
     FM041900 29009KT P6SM SCT015=



000
FTUS46 KSGX 031726
TAFPSP
TAF
KPSP 031726Z 0318/0418 33009KT P6SM SCT200
     FM032300 33014G22KT P6SM SCT200
     FM040700 VRB05KT P6SM SKC=



000
FTUS46 KSGX 031726
TAFTRM
TAF
KTRM 031726Z 0318/0418 VRB05KT P6SM SCT200
     FM040100 33012G20KT P6SM SKC
     FM040900 33008KT P6SM SKC
     FM041400 VRB05KT P6SM SKC=



000
FTUS46 KSGX 031726
TAFCRQ
TAF
KCRQ 031726Z 0318/0418 VRB04KT P6SM BKN010
     FM031900 26008KT P6SM FEW012
     FM040000 VRB04KT P6SM SCT012
     FM040300 VRB04KT P6SM OVC010=



000
FTUS46 KSGX 031726
TAFSAN
TAF
KSAN 031726Z 0318/0424 29009KT P6SM FEW015
     FM040200 VRB04KT P6SM SCT013
     FM040400 VRB04KT P6SM OVC013
     FM041900 29009KT P6SM SCT015=



000
FTUS46 KSGX 031726
TAFSNA
TAF
KSNA 031726Z 0318/0418 VRB04KT P6SM BKN012
     FM031900 23008KT P6SM SKC
     FM040200 VRB04KT P6SM FEW015
     FM040700 VRB04KT P6SM OVC012=



000
FTUS46 KSGX 031726
TAFONT
TAF
KONT 031726Z 0318/0424 27005KT P6SM SCT200
     FM032100 25011G18KT P6SM SCT200
     FM040400 25007KT P6SM SKC
     FM041200 VRB04KT 4SM BR SCT006
     FM041600 VRB04KT 6SM HZ SKC
     FM042100 25011G18KT P6SM SKC=



000
FTUS46 KSGX 031726
TAFCRQ
TAF
KCRQ 031726Z 0318/0418 VRB04KT P6SM BKN010
     FM031900 26008KT P6SM FEW012
     FM040000 VRB04KT P6SM SCT012
     FM040300 VRB04KT P6SM OVC010=



000
FTUS46 KSGX 031726
TAFPSP
TAF
KPSP 031726Z 0318/0418 33009KT P6SM SCT200
     FM032300 33014G22KT P6SM SCT200
     FM040700 VRB05KT P6SM SKC=



000
FTUS46 KSGX 031726
TAFSAN
TAF
KSAN 031726Z 0318/0424 29009KT P6SM FEW015
     FM040200 VRB04KT P6SM SCT013
     FM040400 VRB04KT P6SM OVC013
     FM041900 29009KT P6SM SCT015=



000
FTUS46 KSGX 031726
TAFSNA
TAF
KSNA 031726Z 0318/0418 VRB04KT P6SM BKN012
     FM031900 23008KT P6SM SKC
     FM040200 VRB04KT P6SM FEW015
     FM040700 VRB04KT P6SM OVC012=



000
FTUS46 KSGX 031726
TAFTRM
TAF
KTRM 031726Z 0318/0418 VRB05KT P6SM SCT200
     FM040100 33012G20KT P6SM SKC
     FM040900 33008KT P6SM SKC
     FM041400 VRB05KT P6SM SKC=



000
FTUS46 KSGX 031726
TAFONT
TAF
KONT 031726Z 0318/0424 27005KT P6SM SCT200
     FM032100 25011G18KT P6SM SCT200
     FM040400 25007KT P6SM SKC
     FM041200 VRB04KT 4SM BR SCT006
     FM041600 VRB04KT 6SM HZ SKC
     FM042100 25011G18KT P6SM SKC=



000
FTUS46 KSGX 031552 AAC
TAFSNA
TAF AMD
KSNA 031552Z 0316/0412 VRB04KT P6SM BKN010
     FM031800 VRB04KT P6SM SCT010
     FM032000 23008KT P6SM FEW015
     FM040300 VRB04KT P6SM SCT012
     FM040800 VRB04KT P6SM OVC010=



000
FTUS46 KSGX 031453 AAA
TAFSAN
TAF AMD
KSAN 031453Z 0315/0418 VRB04KT P6SM OVC013
     FM031800 29009KT P6SM FEW015
     FM040200 VRB04KT P6SM SCT013
     FM040400 VRB04KT P6SM OVC011=



000
FTUS46 KSGX 031453 AAA
TAFSAN
TAF AMD
KSAN 031453Z 0315/0418 VRB04KT P6SM OVC013
     FM031800 29009KT P6SM FEW015
     FM040200 VRB04KT P6SM SCT013
     FM040400 VRB04KT P6SM OVC011=



000
FTUS46 KSGX 031428 AAB
TAFSNA
TAF AMD
KSNA 031428Z 0314/0412 VRB04KT P6SM BKN010
     FM031600 VRB04KT P6SM SCT010
     FM032000 23008KT P6SM FEW015
     FM040300 VRB04KT P6SM SCT012
     FM040800 VRB04KT P6SM OVC010=



000
FTUS46 KSGX 031248 AAA
TAFSNA
TAF AMD
KSNA 031248Z 0313/0412 VRB04KT P6SM BKN008
     FM031630 VRB04KT P6SM SCT010
     FM032000 23008KT P6SM FEW015
     FM040300 VRB04KT P6SM SCT012
     FM040800 VRB03KT P6SM OVC010=



000
FTUS46 KSGX 031248 AAA
TAFSNA
TAF AMD
KSNA 031248Z 0313/0412 VRB04KT P6SM BKN008
     FM031630 VRB04KT P6SM SCT010
     FM032000 23008KT P6SM FEW015
     FM040300 VRB04KT P6SM SCT012
     FM040800 VRB03KT P6SM OVC010=



000
FTUS46 KSGX 031120
TAFSAN
TAF
KSAN 031120Z 0312/0418 VRB03KT P6SM OVC013
     FM031800 29009KT P6SM FEW015
     FM040200 VRB05KT P6SM SCT013
     FM040400 VRB04KT P6SM OVC011=



000
FTUS46 KSGX 031120
TAFSNA
TAF
KSNA 031120Z 0312/0412 VRB05KT P6SM FEW010
      TEMPO 0312/0316 BKN010
     FM032000 23008KT P6SM FEW015
     FM040300 VRB04KT P6SM SCT012
     FM040800 VRB03KT P6SM OVC011=



000
FTUS46 KSGX 031120
TAFONT
TAF
KONT 031120Z 0312/0418 VRB05KT P6SM FEW200
     FM032100 25011G18KT P6SM FEW080 FEW200
     FM040500 25007KT P6SM SKC
     FM041200 VRB04KT 4SM BR FEW006
     FM041600 VRB04KT 6SM HZ SKC=



000
FTUS46 KSGX 031120
TAFSAN
TAF
KSAN 031120Z 0312/0418 VRB03KT P6SM OVC013
     FM031800 29009KT P6SM FEW015
     FM040200 VRB05KT P6SM SCT013
     FM040400 VRB04KT P6SM OVC011=



000
FTUS46 KSGX 031120
TAFSNA
TAF
KSNA 031120Z 0312/0412 VRB05KT P6SM FEW010
      TEMPO 0312/0316 BKN010
     FM032000 23008KT P6SM FEW015
     FM040300 VRB04KT P6SM SCT012
     FM040800 VRB03KT P6SM OVC011=



000
FTUS46 KSGX 031120
TAFONT
TAF
KONT 031120Z 0312/0418 VRB05KT P6SM FEW200
     FM032100 25011G18KT P6SM FEW080 FEW200
     FM040500 25007KT P6SM SKC
     FM041200 VRB04KT 4SM BR FEW006
     FM041600 VRB04KT 6SM HZ SKC=



000
FTUS46 KSGX 031120
TAFCRQ
TAF
KCRQ 031120Z 0312/0412 VRB03KT P6SM OVC008
     FM031700 VRB05KT P6SM BKN010
     FM031800 26008KT P6SM FEW012
     FM040400 VRB04KT P6SM BKN011
     FM040700 VRB03KT P6SM OVC009=



000
FTUS46 KSGX 031120
TAFCRQ
TAF
KCRQ 031120Z 0312/0412 VRB03KT P6SM OVC008
     FM031700 VRB05KT P6SM BKN010
     FM031800 26008KT P6SM FEW012
     FM040400 VRB04KT P6SM BKN011
     FM040700 VRB03KT P6SM OVC009=



000
FTUS46 KSGX 031120
TAFTRM
TAF
KTRM 031120Z 0312/0412 33009KT P6SM SKC
     FM031500 VRB06KT P6SM SKC
     FM040200 33012G20KT P6SM SKC
     FM040800 33010KT P6SM SKC=



000
FTUS46 KSGX 031120
TAFTRM
TAF
KTRM 031120Z 0312/0412 33009KT P6SM SKC
     FM031500 VRB06KT P6SM SKC
     FM040200 33012G20KT P6SM SKC
     FM040800 33010KT P6SM SKC=



000
FTUS46 KSGX 031120
TAFPSP
TAF
KPSP 031120Z 0312/0412 VRB05KT P6SM FEW200
     FM032200 33012G22KT P6SM FEW200
     FM040700 VRB05KT P6SM SKC=



000
FTUS46 KSGX 031120
TAFPSP
TAF
KPSP 031120Z 0312/0412 VRB05KT P6SM FEW200
     FM032200 33012G22KT P6SM FEW200
     FM040700 VRB05KT P6SM SKC=



000
FTUS46 KSGX 031004 AAB
TAFCRQ
TAF AMD
KCRQ 031004Z 0310/0406 VRB03KT P6SM BKN009
     FM031200 VRB03KT 5SM BR OVC006
     FM031600 VRB05KT 6SM HZ BKN008
     FM031800 26008KT P6SM SCT009
     FM040300 VRB04KT P6SM BKN007=



000
FTUS46 KSGX 031004 AAB
TAFSNA
TAF AMD
KSNA 031004Z 0310/0406 VRB05KT P6SM FEW010
     FM031200 VRB05KT 6SM BR BKN010
     FM031630 VRB05KT P6SM SCT012
     FM032000 23008KT P6SM FEW015
     FM040300 VRB04KT P6SM SCT012=



000
FTUS46 KSGX 030959 AAA
TAFSAN
TAF AMD
KSAN 030959Z 0310/0412 30006KT P6SM OVC011
     FM031800 29010KT P6SM FEW012
     FM040200 VRB05KT P6SM SCT011
     FM040400 VRB04KT P6SM OVC010=



000
FTUS46 KSGX 030817 AAA
TAFTRM
TAF AMD
KTRM 030817Z 0308/0406 33010KT P6SM SKC
     FM032000 15009KT P6SM SKC
     FM040300 33013KT P6SM SKC=



000
FTUS46 KSGX 030816 AAA
TAFSNA
TAF AMD
KSNA 030816Z 0308/0406 VRB05KT P6SM FEW010
     FM031000 VRB05KT 6SM BR BKN008
     FM031300 VRB05KT P6SM BKN010
     FM031630 VRB05KT P6SM SCT012
     FM032000 23008KT P6SM FEW015
     FM040300 VRB04KT P6SM SCT012=



000
FTUS46 KSGX 030722 AAA
TAFCRQ
TAF AMD
KCRQ 030722Z 0307/0406 VRB03KT P6SM BKN009
      TEMPO 0307/0309 SCT009
     FM030900 VRB03KT 6SM BR BKN006
     FM031200 VRB03KT 3SM BR OVC004
     FM031600 VRB05KT 6SM HZ BKN007
     FM031800 26008KT P6SM SCT009
     FM040300 VRB04KT P6SM BKN007=



000
FTUS46 KSGX 030722 AAA
TAFCRQ
TAF AMD
KCRQ 030722Z 0307/0406 VRB03KT P6SM BKN009
      TEMPO 0307/0309 SCT009
     FM030900 VRB03KT 6SM BR BKN006
     FM031200 VRB03KT 3SM BR OVC004
     FM031600 VRB05KT 6SM HZ BKN007
     FM031800 26008KT P6SM SCT009
     FM040300 VRB04KT P6SM BKN007=



000
FTUS46 KSGX 030520
TAFSNA
TAF
KSNA 030520Z 0306/0406 VRB05KT P6SM FEW010
     FM030800 VRB05KT 6SM BR BKN008
     FM031300 VRB05KT P6SM BKN010
     FM031630 VRB05KT P6SM SCT012
     FM032000 23008KT P6SM FEW015
     FM040300 VRB04KT P6SM SCT012=



000
FTUS46 KSGX 030520
TAFSAN
TAF
KSAN 030520Z 0306/0412 30006KT P6SM FEW010
     FM030700 VRB03KT 6SM BR OVC008
     FM031600 VRB05KT P6SM BKN010
     FM031800 29010KT P6SM FEW012
     FM040200 VRB05KT P6SM SCT011
     FM040400 VRB04KT P6SM OVC010=



000
FTUS46 KSGX 030520
TAFTRM
TAF
KTRM 030520Z 0306/0406 33014G22KT P6SM FEW200
     FM031100 33010KT P6SM SKC
     FM032000 15009KT P6SM SKC
     FM040300 33013KT P6SM SKC=



000
FTUS46 KSGX 030520
TAFPSP
TAF
KPSP 030520Z 0306/0406 32011KT P6SM SKC
     FM031100 VRB05KT P6SM SKC
     FM032300 33012G22KT P6SM SKC=



000
FTUS46 KSGX 030520
TAFCRQ
TAF
KCRQ 030520Z 0306/0406 VRB03KT P6SM SCT008
     FM030700 VRB03KT 6SM BR BKN006
     FM031200 VRB03KT 3SM BR OVC004
     FM031600 VRB05KT 6SM HZ BKN007
     FM031800 26008KT P6SM SCT009
     FM040300 VRB04KT P6SM BKN007=



000
FTUS46 KSGX 030520
TAFSNA
TAF
KSNA 030520Z 0306/0406 VRB05KT P6SM FEW010
     FM030800 VRB05KT 6SM BR BKN008
     FM031300 VRB05KT P6SM BKN010
     FM031630 VRB05KT P6SM SCT012
     FM032000 23008KT P6SM FEW015
     FM040300 VRB04KT P6SM SCT012=



000
FTUS46 KSGX 030520
TAFTRM
TAF
KTRM 030520Z 0306/0406 33014G22KT P6SM FEW200
     FM031100 33010KT P6SM SKC
     FM032000 15009KT P6SM SKC
     FM040300 33013KT P6SM SKC=



000
FTUS46 KSGX 030520
TAFPSP
TAF
KPSP 030520Z 0306/0406 32011KT P6SM SKC
     FM031100 VRB05KT P6SM SKC
     FM032300 33012G22KT P6SM SKC=



000
FTUS46 KSGX 030520
TAFCRQ
TAF
KCRQ 030520Z 0306/0406 VRB03KT P6SM SCT008
     FM030700 VRB03KT 6SM BR BKN006
     FM031200 VRB03KT 3SM BR OVC004
     FM031600 VRB05KT 6SM HZ BKN007
     FM031800 26008KT P6SM SCT009
     FM040300 VRB04KT P6SM BKN007=



000
FTUS46 KSGX 030520
TAFONT
TAF
KONT 030520Z 0306/0412 VRB06KT P6SM FEW200
     FM031300 VRB04KT 6SM BR FEW005
      TEMPO 0313/0316 4SM HZ
     FM032100 25011G18KT P6SM SKC
     FM040500 25007KT P6SM SKC
     FM041100 VRB04KT 5SM HZ SCT006=



000
FTUS46 KSGX 030520
TAFONT
TAF
KONT 030520Z 0306/0412 VRB06KT P6SM FEW200
     FM031300 VRB04KT 6SM BR FEW005
      TEMPO 0313/0316 4SM HZ
     FM032100 25011G18KT P6SM SKC
     FM040500 25007KT P6SM SKC
     FM041100 VRB04KT 5SM HZ SCT006=



000
FTUS46 KSGX 030312 AAA
TAFSAN
TAF AMD
KSAN 030312Z 0303/0406 VRB05KT P6SM FEW010
     FM030600 VRB03KT 6SM BR OVC008
     FM031600 VRB05KT P6SM BKN010
     FM031800 29010KT P6SM FEW012
     FM040300 VRB05KT P6SM SCT009=



000
FTUS46 KSGX 030312 AAA
TAFSAN
TAF AMD
KSAN 030312Z 0303/0406 VRB05KT P6SM FEW010
     FM030600 VRB03KT 6SM BR OVC008
     FM031600 VRB05KT P6SM BKN010
     FM031800 29010KT P6SM FEW012
     FM040300 VRB05KT P6SM SCT009=



000
FTUS46 KSGX 022331
TAFONT
TAF
KONT 022331Z 0300/0406 25011G18KT P6SM FEW090 SCT200
     FM030500 VRB06KT P6SM FEW200
     FM031300 VRB04KT 4SM BR FEW005
     FM031600 VRB04KT P6SM SKC
      TEMPO 0316/0318 6SM HZ
     FM032100 25011KT P6SM SKC
     FM040500 VRB05KT P6SM SKC=



000
FTUS46 KSGX 022331
TAFSNA
TAF
KSNA 022331Z 0300/0324 23009KT P6SM SCT130 SCT250
     FM030200 VRB05KT P6SM FEW010
     FM030800 VRB05KT 6SM BR BKN008
     FM031500 VRB05KT P6SM BKN010
     FM031700 VRB05KT P6SM SCT012
     FM032000 23008KT P6SM FEW015=



000
FTUS46 KSGX 022331
TAFSAN
TAF
KSAN 022331Z 0300/0406 30009KT P6SM FEW014
     FM030300 VRB05KT P6SM FEW010
     FM030600 VRB03KT 6SM BR OVC008
     FM031600 VRB05KT P6SM BKN010
     FM031800 29010KT P6SM FEW012
     FM040300 VRB05KT P6SM SCT009=



000
FTUS46 KSGX 022331
TAFCRQ
TAF
KCRQ 022331Z 0300/0324 26008KT P6SM FEW009
     FM030600 VRB03KT 6SM BR BKN007
     FM031200 VRB03KT 3SM BR OVC004
     FM031600 VRB05KT 6SM HZ BKN007
     FM031800 26008KT P6SM SCT009=



000
FTUS46 KSGX 022331
TAFTRM
TAF
KTRM 022331Z 0300/0324 14007KT P6SM SCT100
     FM030300 33012G20KT P6SM FEW200
     FM031000 33009KT P6SM SKC
     FM032000 15009KT P6SM SKC=



000
FTUS46 KSGX 022331
TAFPSP
TAF
KPSP 022331Z 0300/0324 33012G18KT P6SM SCT100
     FM030600 32008KT P6SM SKC
     FM031100 VRB05KT P6SM SKC
     FM032300 33011G18KT P6SM SKC=



000
FTUS46 KSGX 022331
TAFCRQ
TAF
KCRQ 022331Z 0300/0324 26008KT P6SM FEW009
     FM030600 VRB03KT 6SM BR BKN007
     FM031200 VRB03KT 3SM BR OVC004
     FM031600 VRB05KT 6SM HZ BKN007
     FM031800 26008KT P6SM SCT009=



000
FTUS46 KSGX 022331
TAFSAN
TAF
KSAN 022331Z 0300/0406 30009KT P6SM FEW014
     FM030300 VRB05KT P6SM FEW010
     FM030600 VRB03KT 6SM BR OVC008
     FM031600 VRB05KT P6SM BKN010
     FM031800 29010KT P6SM FEW012
     FM040300 VRB05KT P6SM SCT009=



000
FTUS46 KSGX 022331
TAFSNA
TAF
KSNA 022331Z 0300/0324 23009KT P6SM SCT130 SCT250
     FM030200 VRB05KT P6SM FEW010
     FM030800 VRB05KT 6SM BR BKN008
     FM031500 VRB05KT P6SM BKN010
     FM031700 VRB05KT P6SM SCT012
     FM032000 23008KT P6SM FEW015=



000
FTUS46 KSGX 022331
TAFPSP
TAF
KPSP 022331Z 0300/0324 33012G18KT P6SM SCT100
     FM030600 32008KT P6SM SKC
     FM031100 VRB05KT P6SM SKC
     FM032300 33011G18KT P6SM SKC=



000
FTUS46 KSGX 022331
TAFONT
TAF
KONT 022331Z 0300/0406 25011G18KT P6SM FEW090 SCT200
     FM030500 VRB06KT P6SM FEW200
     FM031300 VRB04KT 4SM BR FEW005
     FM031600 VRB04KT P6SM SKC
      TEMPO 0316/0318 6SM HZ
     FM032100 25011KT P6SM SKC
     FM040500 VRB05KT P6SM SKC=



000
FTUS46 KSGX 022331
TAFTRM
TAF
KTRM 022331Z 0300/0324 14007KT P6SM SCT100
     FM030300 33012G20KT P6SM FEW200
     FM031000 33009KT P6SM SKC
     FM032000 15009KT P6SM SKC=



000
FTUS46 KSGX 022024 AAA
TAFSAN
TAF AMD
KSAN 022024Z 0220/0324 29009KT P6SM FEW014 FEW250
     FM030200 VRB05KT P6SM FEW010
     FM030700 VRB03KT 6SM BR OVC008
     FM031700 VRB05KT P6SM BKN010
     FM031800 29010KT P6SM FEW012=



000
FTUS46 KSGX 022024 AAA
TAFSAN
TAF AMD
KSAN 022024Z 0220/0324 29009KT P6SM FEW014 FEW250
     FM030200 VRB05KT P6SM FEW010
     FM030700 VRB03KT 6SM BR OVC008
     FM031700 VRB05KT P6SM BKN010
     FM031800 29010KT P6SM FEW012=



000
FTUS46 KSGX 021726
TAFONT
TAF
KONT 021726Z 0218/0324 VRB06KT P6SM SCT150 BKN200
     FM022100 25011KT P6SM FEW080 SCT200
     FM030500 VRB05KT P6SM FEW200
     FM031300 VRB04KT 4SM BR FEW005
     FM031600 VRB04KT P6SM SKC
      TEMPO 0316/0318 6SM HZ
     FM032100 25011KT P6SM SKC=



000
FTUS46 KSGX 021726
TAFONT
TAF
KONT 021726Z 0218/0324 VRB06KT P6SM SCT150 BKN200
     FM022100 25011KT P6SM FEW080 SCT200
     FM030500 VRB05KT P6SM FEW200
     FM031300 VRB04KT 4SM BR FEW005
     FM031600 VRB04KT P6SM SKC
      TEMPO 0316/0318 6SM HZ
     FM032100 25011KT P6SM SKC=



000
FTUS46 KSGX 021726
TAFCRQ
TAF
KCRQ 021726Z 0218/0318 22006KT 6SM BR BKN006
     FM021900 25008KT P6SM FEW010 SCT200
      TEMPO 0219/0220 5SM BR SCT008
     FM030000 VRB05KT P6SM SCT008
     FM030700 VRB05KT 6SM BR BKN007
     FM031200 VRB05KT 2SM BR OVC004
     FM031700 VRB05KT 5SM BR BKN007=



000
FTUS46 KSGX 021726
TAFPSP
TAF
KPSP 021726Z 0218/0318 VRB06KT P6SM SCT150
     FM022300 32012G20KT P6SM FEW200
     FM030700 32006KT P6SM SKC=



000
FTUS46 KSGX 021726
TAFTRM
TAF
KTRM 021726Z 0218/0318 VRB06KT P6SM SCT150
     FM022100 14009KT P6SM SCT100
     FM030300 33012G18KT P6SM FEW200
     FM030900 33008KT P6SM SKC=



000
FTUS46 KSGX 021726
TAFSAN
TAF
KSAN 021726Z 0218/0324 20006KT P6SM OVC009
     FM021900 21009KT P6SM FEW012 SCT200
      TEMPO 0219/0220 BKN010
     FM022300 28009KT P6SM FEW012 FEW200
     FM030200 VRB05KT P6SM FEW010
     FM030700 VRB03KT 6SM BR OVC008
     FM031700 VRB05KT P6SM BKN010
     FM031800 29010KT P6SM FEW012=



000
FTUS46 KSGX 021726
TAFSNA
TAF
KSNA 021726Z 0218/0318 20008KT P6SM FEW013 SCT130 BKN250
     FM022000 22009KT P6SM SCT130 SCT250
     FM030200 VRB05KT P6SM FEW010
     FM030900 VRB05KT 6SM BR BKN008
     FM031600 VRB05KT P6SM BKN010
     FM031700 VRB05KT P6SM SCT012=



000
FTUS46 KSGX 021726
TAFTRM
TAF
KTRM 021726Z 0218/0318 VRB06KT P6SM SCT150
     FM022100 14009KT P6SM SCT100
     FM030300 33012G18KT P6SM FEW200
     FM030900 33008KT P6SM SKC=



000
FTUS46 KSGX 021726
TAFCRQ
TAF
KCRQ 021726Z 0218/0318 22006KT 6SM BR BKN006
     FM021900 25008KT P6SM FEW010 SCT200
      TEMPO 0219/0220 5SM BR SCT008
     FM030000 VRB05KT P6SM SCT008
     FM030700 VRB05KT 6SM BR BKN007
     FM031200 VRB05KT 2SM BR OVC004
     FM031700 VRB05KT 5SM BR BKN007=



000
FTUS46 KSGX 021726
TAFPSP
TAF
KPSP 021726Z 0218/0318 VRB06KT P6SM SCT150
     FM022300 32012G20KT P6SM FEW200
     FM030700 32006KT P6SM SKC=



000
FTUS46 KSGX 021726
TAFSAN
TAF
KSAN 021726Z 0218/0324 20006KT P6SM OVC009
     FM021900 21009KT P6SM FEW012 SCT200
      TEMPO 0219/0220 BKN010
     FM022300 28009KT P6SM FEW012 FEW200
     FM030200 VRB05KT P6SM FEW010
     FM030700 VRB03KT 6SM BR OVC008
     FM031700 VRB05KT P6SM BKN010
     FM031800 29010KT P6SM FEW012=



000
FTUS46 KSGX 021726
TAFSNA
TAF
KSNA 021726Z 0218/0318 20008KT P6SM FEW013 SCT130 BKN250
     FM022000 22009KT P6SM SCT130 SCT250
     FM030200 VRB05KT P6SM FEW010
     FM030900 VRB05KT 6SM BR BKN008
     FM031600 VRB05KT P6SM BKN010
     FM031700 VRB05KT P6SM SCT012=



000
FTUS46 KSGX 021613 AAB
TAFCRQ
TAF AMD
KCRQ 021613Z 0216/0312 VRB05KT 4SM BR OVC004
     FM021700 VRB05KT 5SM BR OVC006
     FM021800 VRB05KT 6SM BR BKN008
     FM021900 25009KT P6SM FEW010 SCT200
     FM030200 VRB04KT P6SM SCT008
     FM030700 VRB03KT 6SM BR BKN007=



000
FTUS46 KSGX 021611 AAD
TAFSAN
TAF AMD
KSAN 021611Z 0216/0318 VRB05KT 6SM BR OVC009
     FM021700 VRB04KT P6SM BKN012
     FM021800 28010KT P6SM SCT200
     FM030200 VRB05KT P6SM FEW010
     FM030700 VRB03KT P6SM BKN010
     FM031700 VRB04KT P6SM SCT012=



000
FTUS46 KSGX 021503 AAA
TAFCRQ
TAF AMD
KCRQ 021503Z 0215/0312 VRB03KT 4SM BR OVC004
     FM021600 VRB04KT 6SM HZ SCT150
      TEMPO 0216/0217 5SM BR BKN008
     FM021900 25009KT P6SM SCT200
     FM030200 VRB04KT P6SM SCT008
     FM030700 VRB03KT 6SM BR BKN007=



000
FTUS46 KSGX 021501 AAC
TAFSAN
TAF AMD
KSAN 021501Z 0215/0318 VRB05KT 3SM BR OVC006
     FM021600 VRB04KT 6SM BR BKN009
     FM021700 VRB04KT P6SM SCT012
     FM021800 28010KT P6SM SCT200
     FM030200 VRB05KT P6SM FEW010
     FM030700 VRB03KT P6SM BKN010
     FM031700 VRB04KT P6SM SCT012=



000
FTUS46 KSGX 021415 AAB
TAFSAN
TAF AMD
KSAN 021415Z 0214/0318 VRB05KT 3SM BR OVC005
      TEMPO 0214/0216 2SM BR OVC004
     FM021600 VRB04KT P6SM SCT010
      TEMPO 0216/0217 6SM BR BKN009
     FM021800 28010KT P6SM SCT200
     FM030200 VRB05KT P6SM FEW010
     FM030700 VRB03KT P6SM BKN010
     FM031700 VRB04KT P6SM SCT012=



000
FTUS46 KSGX 021322 AAA
TAFSAN
TAF AMD
KSAN 021322Z 0213/0318 VRB05KT 3SM BR BKN005
     FM021500 VRB04KT P6SM SCT010
      TEMPO 0215/0216 6SM BR BKN009
     FM021800 28010KT P6SM SCT200
     FM030200 VRB05KT P6SM FEW010
     FM030700 VRB03KT P6SM BKN010
     FM031700 VRB04KT P6SM SCT012=



000
FTUS46 KSGX 021120
TAFSAN
TAF
KSAN 021120Z 0212/0318 VRB05KT P6SM BKN008 BKN150
      TEMPO 0212/0215 SCT008
     FM021500 VRB04KT P6SM SCT012 SCT150
     FM021800 28010KT P6SM SCT200
     FM030200 VRB05KT P6SM FEW010
     FM030700 VRB03KT P6SM BKN010
     FM031700 VRB04KT P6SM SCT012=



000
FTUS46 KSGX 021120
TAFTRM
TAF
KTRM 021120Z 0212/0312 VRB05KT P6SM BKN150
     FM021900 14010KT P6SM VCSH SCT100 SCT200
     FM030300 33012G20KT P6SM FEW200
     FM030900 33008KT P6SM SKC=



000
FTUS46 KSGX 021120
TAFCRQ
TAF
KCRQ 021120Z 0212/0312 VRB03KT 4SM BR FEW006 BKN150
      TEMPO 0212/0215 BKN006
     FM021600 VRB04KT 6SM HZ SCT150
     FM021900 25009KT P6SM SCT200
     FM030200 VRB04KT P6SM SCT008
     FM030700 VRB03KT 6SM BR BKN007=



000
FTUS46 KSGX 021120
TAFONT
TAF
KONT 021120Z 0212/0318 VRB04KT P6SM SCT150 BKN200
     FM022000 25011KT P6SM FEW080 SCT200
     FM030400 VRB05KT P6SM FEW200
     FM031200 VRB04KT 4SM BR FEW005
     FM031600 VRB04KT 6SM HZ SKC=



000
FTUS46 KSGX 021120
TAFPSP
TAF
KPSP 021120Z 0212/0312 VRB06KT P6SM BKN150
     FM022200 10009KT P6SM VCSH SCT100 SCT200
     FM030100 32012G20KT P6SM FEW200
     FM030700 32006KT P6SM SKC=



000
FTUS46 KSGX 021120
TAFSAN
TAF
KSAN 021120Z 0212/0318 VRB05KT P6SM BKN008 BKN150
      TEMPO 0212/0215 SCT008
     FM021500 VRB04KT P6SM SCT012 SCT150
     FM021800 28010KT P6SM SCT200
     FM030200 VRB05KT P6SM FEW010
     FM030700 VRB03KT P6SM BKN010
     FM031700 VRB04KT P6SM SCT012=



000
FTUS46 KSGX 021120
TAFTRM
TAF
KTRM 021120Z 0212/0312 VRB05KT P6SM BKN150
     FM021900 14010KT P6SM VCSH SCT100 SCT200
     FM030300 33012G20KT P6SM FEW200
     FM030900 33008KT P6SM SKC=



000
FTUS46 KSGX 021120
TAFSNA
TAF
KSNA 021120Z 0212/0312 VRB04KT P6SM FEW010 BKN150
     FM021800 22009KT P6SM SCT200
     FM030200 VRB04KT P6SM FEW010
     FM030800 VRB03KT 6SM BR BKN008=



000
FTUS46 KSGX 021120
TAFCRQ
TAF
KCRQ 021120Z 0212/0312 VRB03KT 4SM BR FEW006 BKN150
      TEMPO 0212/0215 BKN006
     FM021600 VRB04KT 6SM HZ SCT150
     FM021900 25009KT P6SM SCT200
     FM030200 VRB04KT P6SM SCT008
     FM030700 VRB03KT 6SM BR BKN007=



000
FTUS46 KSGX 021120
TAFPSP
TAF
KPSP 021120Z 0212/0312 VRB06KT P6SM BKN150
     FM022200 10009KT P6SM VCSH SCT100 SCT200
     FM030100 32012G20KT P6SM FEW200
     FM030700 32006KT P6SM SKC=



000
FTUS46 KSGX 021120
TAFSNA
TAF
KSNA 021120Z 0212/0312 VRB04KT P6SM FEW010 BKN150
     FM021800 22009KT P6SM SCT200
     FM030200 VRB04KT P6SM FEW010
     FM030800 VRB03KT 6SM BR BKN008=



000
FTUS46 KSGX 021120
TAFONT
TAF
KONT 021120Z 0212/0318 VRB04KT P6SM SCT150 BKN200
     FM022000 25011KT P6SM FEW080 SCT200
     FM030400 VRB05KT P6SM FEW200
     FM031200 VRB04KT 4SM BR FEW005
     FM031600 VRB04KT 6SM HZ SKC=



000
FTUS46 KSGX 020918 AAA
TAFSAN
TAF AMD
KSAN 020918Z 0209/0312 VRB05KT P6SM BKN010
      TEMPO 0209/0212 5SM BR BKN008
     FM021500 VRB04KT P6SM SCT012
     FM021800 29010KT P6SM SCT200
     FM030200 VRB05KT P6SM FEW010
     FM030700 VRB03KT P6SM BKN010=



000
FTUS46 KSGX 020809 AAA
TAFCRQ
TAF AMD
KCRQ 020809Z 0208/0306 VRB05KT 6SM BR FEW007
      TEMPO 0210/0214 5SM BR BKN006
     FM021500 VRB05KT P6SM SCT007
     FM021900 25009KT P6SM SCT200
     FM030200 VRB04KT P6SM SCT008
     FM030500 VRB03KT P6SM BKN008=



000
FTUS46 KSGX 020537
TAFONT
TAF
KONT 020537Z 0206/0312 VRB04KT P6SM BKN200
     FM022000 25011KT P6SM FEW080 SCT200
     FM030400 VRB05KT P6SM FEW200=



000
FTUS46 KSGX 020537
TAFCRQ
TAF
KCRQ 020537Z 0206/0306 VRB05KT 6SM BR BKN006
      TEMPO 0210/0214 3SM BR BKN004
     FM021500 VRB05KT P6SM SCT007
     FM021900 25009KT P6SM SCT200
     FM030200 VRB04KT P6SM SCT008
     FM030500 VRB03KT P6SM BKN008=



000
FTUS46 KSGX 020537
TAFPSP
TAF
KPSP 020537Z 0206/0306 VRB06KT P6SM BKN150
     FM022200 10009KT P6SM VCSH SCT100 SCT200
     FM030100 33010G18KT P6SM FEW200=



000
FTUS46 KSGX 020537
TAFSAN
TAF
KSAN 020537Z 0206/0312 VRB05KT P6SM BKN010
     FM021500 VRB04KT P6SM SCT012
     FM021800 29010KT P6SM SCT200
     FM030200 VRB05KT P6SM FEW010
     FM030700 VRB03KT P6SM BKN010=



000
FTUS46 KSGX 020537
TAFTRM
TAF
KTRM 020537Z 0206/0306 VRB05KT P6SM BKN150
     FM021900 14010KT P6SM SCT100 SCT200
     FM030300 33008KT P6SM FEW020=



000
FTUS46 KSGX 020537
TAFSNA
TAF
KSNA 020537Z 0206/0306 VRB04KT P6SM FEW010 BKN200
     FM021800 22009KT P6SM SCT200
     FM030300 VRB04KT P6SM SCT010=



000
FTUS46 KSGX 020537
TAFPSP
TAF
KPSP 020537Z 0206/0306 VRB06KT P6SM BKN150
     FM022200 10009KT P6SM VCSH SCT100 SCT200
     FM030100 33010G18KT P6SM FEW200=



000
FTUS46 KSGX 020537
TAFSAN
TAF
KSAN 020537Z 0206/0312 VRB05KT P6SM BKN010
     FM021500 VRB04KT P6SM SCT012
     FM021800 29010KT P6SM SCT200
     FM030200 VRB05KT P6SM FEW010
     FM030700 VRB03KT P6SM BKN010=



000
FTUS46 KSGX 020537
TAFTRM
TAF
KTRM 020537Z 0206/0306 VRB05KT P6SM BKN150
     FM021900 14010KT P6SM SCT100 SCT200
     FM030300 33008KT P6SM FEW020=



000
FTUS46 KSGX 020537
TAFSNA
TAF
KSNA 020537Z 0206/0306 VRB04KT P6SM FEW010 BKN200
     FM021800 22009KT P6SM SCT200
     FM030300 VRB04KT P6SM SCT010=



000
FTUS46 KSGX 020537
TAFCRQ
TAF
KCRQ 020537Z 0206/0306 VRB05KT 6SM BR BKN006
      TEMPO 0210/0214 3SM BR BKN004
     FM021500 VRB05KT P6SM SCT007
     FM021900 25009KT P6SM SCT200
     FM030200 VRB04KT P6SM SCT008
     FM030500 VRB03KT P6SM BKN008=



000
FTUS46 KSGX 020247 AAB
TAFCRQ
TAF AMD
KCRQ 020247Z 0203/0224 VRB05KT P6SM SCT008 BKN150
      TEMPO 0203/0206 BKN007
     FM020800 VRB05KT 5SM BR BKN007
      TEMPO 0212/0214 4SM BR BKN005
     FM021500 VRB05KT P6SM SCT007
     FM021900 25009KT P6SM SCT200=



000
FTUS46 KSGX 020246 CCA
TAFSAN
TAF COR
KSAN 020246Z 0203/0306 VRB05KT P6SM SCT010 BKN150
      TEMPO 0203/0206 BKN010
     FM020800 VRB04KT P6SM BKN010
     FM021500 VRB04KT P6SM SCT010
     FM021800 29010KT P6SM SCT200
     FM030200 VRB05KT P6SM FEW010=



000
FTUS46 KSGX 020245 AAC
TAFSAN
TAF AMD
KSAN 020245Z 0203/0306 VRB05KT P6SM SCT010 BKN150
      TEMPO 0203/0206 BKN010
     FM020800 VRB04KT P6SM BKN009
     FM021500 VRB04KT P6SM SCT010
     FM021800 29010KT P6SM SCT200
     FM030200 VRB05KT P6SM FEW010=



000
FTUS46 KSGX 020101 AAA
TAFCRQ
TAF AMD
KCRQ 020101Z 0201/0224 25007KT P6SM VCSH FEW008 SCT100 BKN120
      TEMPO 0201/0203 5SM -SHRA BR BKN007
     FM020300 VRB05KT P6SM SCT007 BKN150
     FM021100 VRB05KT 5SM BR BKN005
      TEMPO 0212/0214 3SM BR BKN004
     FM021500 VRB05KT P6SM SCT007
     FM021900 25009KT P6SM SCT200=



000
FTUS46 KSGX 020101 AAA
TAFCRQ
TAF AMD
KCRQ 020101Z 0201/0224 25007KT P6SM VCSH FEW008 SCT100 BKN120
      TEMPO 0201/0203 5SM -SHRA BR BKN007
     FM020300 VRB05KT P6SM SCT007 BKN150
     FM021100 VRB05KT 5SM BR BKN005
      TEMPO 0212/0214 3SM BR BKN004
     FM021500 VRB05KT P6SM SCT007
     FM021900 25009KT P6SM SCT200=



000
FTUS46 KSGX 020059 AAB
TAFSAN
TAF AMD
KSAN 020059Z 0201/0306 20008KT P6SM VCSH FEW010 BKN100 BKN200
      TEMPO 0201/0203 -SHRA BKN009
     FM020300 VRB05KT P6SM SCT010 BKN150
     FM021100 VRB04KT P6SM BKN009
     FM021500 VRB04KT P6SM SCT010
     FM021800 29010KT P6SM SCT200
     FM030200 VRB05KT P6SM FEW010=



000
FTUS46 KSGX 012338 AAA
TAFSAN
TAF AMD
KSAN 012338Z 0200/0306 20008KT P6SM VCSH FEW010 BKN100 BKN200
      TEMPO 0200/0203 BKN009
     FM020300 VRB05KT P6SM SCT010 BKN150
     FM021100 VRB04KT P6SM BKN009
     FM021500 VRB04KT P6SM SCT010
     FM021800 29010KT P6SM SCT200
     FM030200 VRB05KT P6SM FEW010=



000
FTUS46 KSGX 012331
TAFSAN
TAF
KSAN 012331Z 0200/0306 20008KT P6SM VCSH FEW010 BKN100 BKN200
     FM020200 VRB05KT P6SM SCT010 BKN150
     FM021100 VRB04KT P6SM BKN009
     FM021500 VRB04KT P6SM SCT010
     FM021800 29010KT P6SM SCT200
     FM030200 VRB05KT P6SM FEW010=



000
FTUS46 KSGX 012331
TAFSNA
TAF
KSNA 012331Z 0200/0224 22008KT P6SM BKN150
     FM020300 VRB04KT P6SM SCT010 BKN200
     FM021800 22009KT P6SM SCT200=



000
FTUS46 KSGX 012331
TAFTRM
TAF
KTRM 012331Z 0200/0224 14012KT P6SM BKN150
     FM020200 VRB06KT P6SM BKN150
     FM020900 VRB06KT P6SM SCT200
     FM022000 14008KT P6SM FEW200=



000
FTUS46 KSGX 012331
TAFONT
TAF
KONT 012331Z 0200/0306 26012G20KT P6SM SCT100 BKN150
     FM020200 26009KT P6SM BKN150
     FM020500 VRB04KT P6SM BKN200
     FM022000 26012KT P6SM FEW080 SCT200
     FM030400 VRB05KT P6SM FEW200=



000
FTUS46 KSGX 012331
TAFCRQ
TAF
KCRQ 012331Z 0200/0224 25007KT P6SM VCSH FEW008 SCT100 BKN120
     FM020200 VRB05KT P6SM SCT007 BKN150
     FM021100 VRB05KT 5SM BR BKN005
      TEMPO 0212/0214 3SM BR BKN004
     FM021500 VRB05KT P6SM SCT007
     FM021900 25009KT P6SM SCT200=



000
FTUS46 KSGX 012331
TAFPSP
TAF
KPSP 012331Z 0200/0224 VRB06KT P6SM BKN150
     FM021000 VRB06KT P6SM SCT200=



000
FTUS46 KSGX 012008 AAA
TAFSAN
TAF AMD
KSAN 012008Z 0120/0224 20008KT P6SM VCTS FEW010 BKN100CB BKN200
     FM020300 VRB05KT P6SM SCT010 BKN200
      TEMPO 0212/0215 BKN010
     FM021500 VRB04KT P6SM SCT010
     FM021900 29010KT P6SM SCT250=



000
FTUS46 KSGX 011731
TAFTRM
TAF
KTRM 011731Z 0118/0218 32008KT P6SM VCTS BKN090CB BKN130
     FM012000 13012KT P6SM VCTS BKN090CB BKN130
     FM020300 33012KT P6SM SCT150
     FM020900 VRB06KT P6SM SCT150=



000
FTUS46 KSGX 011731
TAFONT
TAF
KONT 011731Z 0118/0224 VRB05KT P6SM VCSH SCT110 BKN150
     FM012000 26012KT P6SM VCSH SCT100 BKN150
     FM020500 VRB05KT P6SM SCT150
     FM022000 26012KT P6SM SCT080 SCT250=



000
FTUS46 KSGX 011731
TAFSNA
TAF
KSNA 011731Z 0118/0218 VRB06KT P6SM VCSH BKN100 BKN150
     FM012000 22009KT P6SM VCSH BKN100 BKN150
     FM020400 VRB05KT P6SM SCT010 SCT100 SCT250
      TEMPO 0212/0215 BKN010=



000
FTUS46 KSGX 011731
TAFSAN
TAF
KSAN 011731Z 0118/0224 19007KT P6SM VCSH BKN100 BKN200
     FM012000 24007KT P6SM VCTS BKN100CB BKN200
     FM020300 VRB04KT P6SM SCT010 BKN200
      TEMPO 0212/0215 BKN010
     FM021500 VRB04KT P6SM SCT010
     FM021900 29010KT P6SM SCT250=



000
FTUS46 KSGX 011731
TAFPSP
TAF
KPSP 011731Z 0118/0218 32012KT P6SM VCTS BKN090CB BKN130
     FM020000 32012G20KT P6SM BKN150
     FM020600 VRB06KT P6SM SCT150=



000
FTUS46 KSGX 011731
TAFCRQ
TAF
KCRQ 011731Z 0118/0218 25007KT P6SM VCSH FEW008 SCT100 BKN120
      TEMPO 0118/0119 5SM BR
     FM020300 VRB05KT P6SM FEW007 SCT200
     FM021000 VRB05KT P6SM SCT007 SCT250
      TEMPO 0212/0215 5SM BR BKN005=



000
FTUS46 KSGX 011436 AAA
TAFSAN
TAF AMD
KSAN 011436Z 0115/0218 VRB06KT P6SM FEW009 BKN150
     FM011900 26008KT P6SM VCSH BKN100 BKN200
     FM020300 VRB04KT P6SM FEW010 BKN200
     FM021000 VRB04KT P6SM BKN010
     FM021500 31003KT P6SM SCT010=



000
FTUS46 KSGX 011436 AAA
TAFSAN
TAF AMD
KSAN 011436Z 0115/0218 VRB06KT P6SM FEW009 BKN150
     FM011900 26008KT P6SM VCSH BKN100 BKN200
     FM020300 VRB04KT P6SM FEW010 BKN200
     FM021000 VRB04KT P6SM BKN010
     FM021500 31003KT P6SM SCT010=



000
FTUS46 KSGX 011427 AAA
TAFCRQ
TAF AMD
KCRQ 011427Z 0114/0212 26005KT 6SM BR FEW004 BKN150
      TEMPO 0114/0116 3SM BR BKN004
     FM011700 24007KT P6SM VCSH SCT100 BKN150
     FM020300 VRB03KT P6SM FEW007 SCT200
     FM021100 27004KT P6SM BKN007=



000
FTUS46 KSGX 011427 AAA
TAFCRQ
TAF AMD
KCRQ 011427Z 0114/0212 26005KT 6SM BR FEW004 BKN150
      TEMPO 0114/0116 3SM BR BKN004
     FM011700 24007KT P6SM VCSH SCT100 BKN150
     FM020300 VRB03KT P6SM FEW007 SCT200
     FM021100 27004KT P6SM BKN007=



000
FTUS46 KSGX 011213 AAA
TAFTRM
TAF AMD
KTRM 011213Z 0112/0212 14004KT P6SM BKN100
     FM011600 13010KT P6SM VCTS BKN080CB
     FM020200 33012KT P6SM SCT150
     FM020900 33006KT P6SM SCT150=



000
FTUS46 KSGX 011213 AAA
TAFTRM
TAF AMD
KTRM 011213Z 0112/0212 14004KT P6SM BKN100
     FM011600 13010KT P6SM VCTS BKN080CB
     FM020200 33012KT P6SM SCT150
     FM020900 33006KT P6SM SCT150=



000
FTUS46 KSGX 011120
TAFSAN
TAF
KSAN 011120Z 0112/0218 24003KT P6SM FEW009 SCT170 BKN250
     FM012000 28009KT P6SM VCSH BKN100 BKN200
     FM020300 VRB04KT P6SM FEW010 BKN200
     FM021000 VRB04KT P6SM BKN010
     FM021500 31003KT P6SM SCT010=



000
FTUS46 KSGX 011120
TAFTRM
TAF
KTRM 011120Z 0112/0212 15008KT P6SM SCT100
     FM011600 13010KT P6SM VCTS BKN080CB
     FM020200 33012KT P6SM SCT150
     FM020900 33006KT P6SM SCT150=



000
FTUS46 KSGX 011120
TAFCRQ
TAF
KCRQ 011120Z 0112/0212 26005KT 6SM BR FEW006 BKN150
     FM011700 24007KT P6SM VCSH SCT100 BKN150
     FM020300 VRB03KT P6SM FEW007 SCT200
     FM020900 27004KT P6SM BKN007=



000
FTUS46 KSGX 011120
TAFONT
TAF
KONT 011120Z 0112/0218 04003KT P6SM SCT060 BKN100
     FM011900 26012KT P6SM VCSH SCT100 BKN150
     FM020300 VRB05KT P6SM SCT150=



000
FTUS46 KSGX 011120
TAFSNA
TAF
KSNA 011120Z 0112/0212 16005KT P6SM BKN100
     FM011600 21005KT P6SM SCT100 BKN150
     FM011800 22009KT P6SM VCSH BKN100 OVC150
     FM020400 VRB04KT P6SM SCT150
     FM021000 VRB03KT P6SM BKN010=



000
FTUS46 KSGX 011120
TAFPSP
TAF
KPSP 011120Z 0112/0212 10007KT P6SM BKN100
     FM011600 10010KT P6SM VCTS BKN100CB
     FM020000 32015G25KT P6SM BKN150
     FM020600 VRB06KT P6SM SCT150=



000
FTUS46 KSGX 011120
TAFSAN
TAF
KSAN 011120Z 0112/0218 24003KT P6SM FEW009 SCT170 BKN250
     FM012000 28009KT P6SM VCSH BKN100 BKN200
     FM020300 VRB04KT P6SM FEW010 BKN200
     FM021000 VRB04KT P6SM BKN010
     FM021500 31003KT P6SM SCT010=



000
FTUS46 KSGX 011120
TAFTRM
TAF
KTRM 011120Z 0112/0212 15008KT P6SM SCT100
     FM011600 13010KT P6SM VCTS BKN080CB
     FM020200 33012KT P6SM SCT150
     FM020900 33006KT P6SM SCT150=



000
FTUS46 KSGX 011120
TAFCRQ
TAF
KCRQ 011120Z 0112/0212 26005KT 6SM BR FEW006 BKN150
     FM011700 24007KT P6SM VCSH SCT100 BKN150
     FM020300 VRB03KT P6SM FEW007 SCT200
     FM020900 27004KT P6SM BKN007=



000
FTUS46 KSGX 011120
TAFONT
TAF
KONT 011120Z 0112/0218 04003KT P6SM SCT060 BKN100
     FM011900 26012KT P6SM VCSH SCT100 BKN150
     FM020300 VRB05KT P6SM SCT150=



000
FTUS46 KSGX 011120
TAFSNA
TAF
KSNA 011120Z 0112/0212 16005KT P6SM BKN100
     FM011600 21005KT P6SM SCT100 BKN150
     FM011800 22009KT P6SM VCSH BKN100 OVC150
     FM020400 VRB04KT P6SM SCT150
     FM021000 VRB03KT P6SM BKN010=



000
FTUS46 KSGX 011120
TAFPSP
TAF
KPSP 011120Z 0112/0212 10007KT P6SM BKN100
     FM011600 10010KT P6SM VCTS BKN100CB
     FM020000 32015G25KT P6SM BKN150
     FM020600 VRB06KT P6SM SCT150=



000
FTUS46 KSGX 011009 AAA
TAFONT
TAF AMD
KONT 011009Z 0110/0212 15003KT P6SM VCSH BKN100 BKN230
     FM011900 26012KT P6SM SCT100 BKN150
     FM020300 VRB05KT P6SM SCT150=



000
FTUS46 KSGX 010908 AAA
TAFSAN
TAF AMD
KSAN 010908Z 0109/0212 17004KT P6SM FEW009 BKN170 BKN250
     FM011700 22005KT P6SM SCT100 BKN150
     FM012000 28009KT P6SM BKN100 BKN200
     FM020300 VRB04KT P6SM FEW010 BKN200
     FM020900 VRB04KT P6SM BKN010=



000
FTUS46 KSGX 010908 AAA
TAFSAN
TAF AMD
KSAN 010908Z 0109/0212 17004KT P6SM FEW009 BKN170 BKN250
     FM011700 22005KT P6SM SCT100 BKN150
     FM012000 28009KT P6SM BKN100 BKN200
     FM020300 VRB04KT P6SM FEW010 BKN200
     FM020900 VRB04KT P6SM BKN010=



000
FTUS46 KSGX 010906 AAA
TAFTRM
TAF AMD
KTRM 010906Z 0109/0206 16011KT P6SM VCTS BKN080CB
     FM020200 33010KT P6SM SCT150=



000
FTUS46 KSGX 010904 AAA
TAFPSP
TAF AMD
KPSP 010904Z 0109/0206 17006KT P6SM VCTS BKN080CB
     FM011500 10010KT P6SM VCTS BKN100CB
     FM012300 32015G25KT P6SM SCT150=



000
FTUS46 KSGX 010904 AAA
TAFPSP
TAF AMD
KPSP 010904Z 0109/0206 17006KT P6SM VCTS BKN080CB
     FM011500 10010KT P6SM VCTS BKN100CB
     FM012300 32015G25KT P6SM SCT150=



    US Dept of Commerce
    National Oceanic and Atmospheric Administration
    National Weather Service
    1325 East West Highway
    Silver Spring, MD 20910
    Page Author: NWS Internet Services Team
Disclaimer
Information Quality
Credits
Glossary
Privacy Policy
Freedom of Information Act (FOIA)
About Us
Career Opportunities